To NAV CANADA Home Page Login to a new session Search on AWWS site Feedback and Comments Disclaimer Vers la page française équivalente Tips FAQ What's new on the site To the Forecasts and Observations / NOTAM section To "File a Flight Plan" website Publications and other links Update of the User's profile FIC Telephone Numbers My Weather Data Folder Route Weather Data Regional Weather Data Local Weather Data To the Forecasts and Observations / NOTAM section
Request Generated 09/03/2015 at 02:25:56 UTC . Weather information available at that time is displayed.

METAR/TAF

OTTAWA/MACDONALD-CARTIER INTL/ON    

SPECI CYOW 030219Z 23007KT 15SM FEW060 SCT120 BKN220 22/20 A2989 RMK
CU1AC2CI3 SLP121 DENSITY ALT 1200FT=
METAR CYOW 030200Z 20004KT 180V240 15SM TS SCT046 BKN120 BKN200 23/22
A2989 RMK CU3AC2CI2 CB EMBD OCNL LTGIC SE SLP121 DENSITY ALT 1400FT=
SPECI CYOW 030125Z 25006G15KT 210V310 15SM -TSRA SCT046 OVC120 22/19
A2990 RMK SC3AC5 CB EMBD FRQ LTGCCCG ALQDS SLP125 DENSITY ALT 1200FT=
SPECI CYOW 030109Z 27010KT 7SM TSRA SCT043 OVC060 24/21 A2991 RMK
CU4SC4 VIS W 2 CB EMBD CONTUS LTGICCG W-N PRESRR SLP127 DENSITY ALT
1500FT=
METAR CYOW 030100Z 26004KT 15SM -TSRA SCT046 OVC160 23/21 A2990 RMK
CU4AC4 CB EMBD FRQ LTGICCG N SLP123 DENSITY ALT 1300FT=
SPECI CYOW 030032Z 21004KT 15SM TS FEW030 OVC240 23/21 A2989 RMK
CU1CI8 CU TR CB EMBED FREQ LTGIC NW SLP120 DENSITY ALT 1300FT=
METAR CYOW 030000Z 19003KT 15SM FEW030CB FEW120 SCT200 OVC240 23/21
A2988 RMK CB1AC1CI3CI4 CB TR CB NW OCNL LTGIC VIA CYQB SLP118
DENSITY ALT 1400FT=

TAF AMD CYOW 030206Z 0302/0324 22005KT P6SM SCT040 TEMPO 0302/0303
VRB15G25KT 2SM TSRA BR BKN020 BKN040CB
FM030300 27006KT P6SM BKN040
FM030600 34003KT P6SM BKN250 PROB30 0306/0312 1/2SM FG VV002
FM031700 36008KT P6SM FEW040
RMK NXT FCST BY 030300Z=
Your time UTC time
Weather data provided by Environment Canada and NAV CANADA